createdAt,value
2023-11-14T00:00:26.008Z,95618.66
2023-11-14T00:02:53.121Z,95638.47
2023-11-14T00:05:20.092Z,95626.91
2023-11-14T00:07:47.044Z,95619.44
2023-11-14T00:10:14.097Z,95630.56
2023-11-14T00:12:41.085Z,95610.66
2023-11-14T00:15:08.874Z,95620.75
2023-11-14T00:17:36.492Z,95627.69
2023-11-14T00:20:06.953Z,95656.03
2023-11-14T00:22:35.142Z,95653.06
2023-11-14T00:25:02.212Z,95654.44
2023-11-14T00:27:29.073Z,95648.44
2023-11-14T00:29:55.980Z,95665.28
2023-11-14T00:32:22.975Z,95669.66
2023-11-14T00:34:51.152Z,95684.41
2023-11-14T00:37:18.804Z,95681.81
2023-11-14T00:39:45.785Z,95713.69
2023-11-14T00:42:14.003Z,95709.41
2023-11-14T00:44:41.019Z,95728.56
2023-11-14T00:47:07.997Z,95703.78
2023-11-14T00:49:35.054Z,95701.38
2023-11-14T00:52:02.103Z,95717.81
2023-11-14T00:54:32.174Z,95726.81
2023-11-14T00:56:59.592Z,95719.69
2023-11-14T00:59:26.540Z,95725.94
2023-11-14T01:01:53.665Z,95727.63
2023-11-14T01:04:21.755Z,95740.69
2023-11-14T01:06:48.828Z,95753.88
2023-11-14T01:09:15.693Z,95741.44
2023-11-14T01:11:42.834Z,95762.59
2023-11-14T01:14:09.821Z,95767.41
2023-11-14T01:16:36.885Z,95772.13
2023-11-14T01:19:04.199Z,95780.81
2023-11-14T01:21:32.434Z,95794.09
2023-11-14T01:23:59.420Z,95799.91
2023-11-14T01:26:33.012Z,95798.84
2023-11-14T01:29:00.003Z,95799.81
2023-11-14T01:31:27.015Z,95797.41
2023-11-14T01:33:53.910Z,95786.19
2023-11-14T01:36:21.255Z,95777.00
2023-11-14T01:38:48.176Z,95785.97
2023-11-14T01:41:15.599Z,95777.03
2023-11-14T01:43:47.125Z,95784.84
2023-11-14T01:46:19.865Z,95818.59
2023-11-14T01:48:53.369Z,95806.19
2023-11-14T01:51:22.083Z,95816.06
2023-11-14T01:53:50.972Z,95811.72
2023-11-14T01:56:18.905Z,95830.34
2023-11-14T01:58:47.192Z,95824.13
2023-11-14T02:01:14.814Z,95819.75
2023-11-14T02:03:43.079Z,95805.06
2023-11-14T02:06:11.074Z,95806.66
2023-11-14T02:08:39.502Z,95798.97
2023-11-14T02:11:07.325Z,95803.78
2023-11-14T02:13:35.484Z,95803.91
2023-11-14T02:16:03.033Z,95791.50
2023-11-14T02:18:30.221Z,95796.31
2023-11-14T02:20:57.254Z,95807.34
2023-11-14T02:23:27.201Z,95805.72
2023-11-14T02:25:54.750Z,95815.09
2023-11-14T02:28:21.741Z,95817.13
2023-11-14T02:30:49.167Z,95825.06
2023-11-14T02:33:16.673Z,95823.69
2023-11-14T02:35:43.670Z,95828.16
2023-11-14T02:38:11.167Z,95836.06
2023-11-14T02:40:38.442Z,95835.63
2023-11-14T02:43:05.628Z,95837.91
2023-11-14T02:45:32.513Z,95843.19
2023-11-14T02:47:59.415Z,95856.19
2023-11-14T02:50:51.713Z,95850.31
2023-11-14T02:53:22.713Z,95843.91
2023-11-14T02:55:53.810Z,95849.63
2023-11-14T02:58:21.181Z,95853.75
2023-11-14T03:00:50.443Z,95852.13
2023-11-14T03:03:18.199Z,95854.34
2023-11-14T03:05:46.208Z,95843.41
2023-11-14T03:08:13.713Z,95839.63
2023-11-14T03:10:40.839Z,95847.88
2023-11-14T03:13:10.166Z,95845.94
2023-11-14T03:15:37.903Z,95867.47
2023-11-14T03:18:05.513Z,95841.88
2023-11-14T03:20:35.032Z,95831.00
2023-11-14T03:23:04.144Z,95841.66
2023-11-14T03:25:31.579Z,95839.03
2023-11-14T03:28:02.798Z,95851.59
2023-11-14T03:30:29.990Z,95859.00
2023-11-14T03:32:57.092Z,95875.41
2023-11-14T03:35:24.130Z,95866.56
2023-11-14T03:37:51.061Z,95877.13
2023-11-14T03:40:17.948Z,95889.50
2023-11-14T03:42:44.855Z,95885.81
2023-11-14T03:45:11.716Z,95879.53
2023-11-14T03:47:39.186Z,95879.00
2023-11-14T03:50:09.451Z,95878.69
2023-11-14T03:52:37.458Z,95881.00
2023-11-14T03:55:04.611Z,95877.97
2023-11-14T03:57:31.485Z,95860.84
2023-11-14T03:59:58.395Z,95870.03
2023-11-14T04:02:26.011Z,95859.06
2023-11-14T04:04:54.382Z,95864.66
2023-11-14T04:07:21.342Z,95870.97
2023-11-14T04:09:48.280Z,95880.88
2023-11-14T04:12:15.165Z,95892.34
2023-11-14T04:14:42.032Z,95888.59
2023-11-14T04:17:09.069Z,95891.19
2023-11-14T04:19:36.852Z,95900.28
2023-11-14T04:22:04.166Z,95894.44
2023-11-14T04:24:32.876Z,95904.41
2023-11-14T04:27:01.256Z,95903.78
2023-11-14T04:29:28.130Z,95907.16
2023-11-14T04:31:55.101Z,95903.69
2023-11-14T04:34:22.026Z,95908.94
2023-11-14T04:36:48.927Z,95893.25
2023-11-14T04:39:15.881Z,95882.81
2023-11-14T04:41:44.102Z,95887.16
2023-11-14T04:44:13.919Z,95900.13
2023-11-14T04:46:45.418Z,95910.56
2023-11-14T04:49:12.882Z,95903.72
2023-11-14T04:51:39.766Z,95920.44
2023-11-14T04:54:06.937Z,95930.97
2023-11-14T04:56:35.435Z,95925.28
2023-11-14T04:59:03.091Z,95948.50
2023-11-14T05:01:30.139Z,95966.09
2023-11-14T05:03:57.111Z,95976.94
2023-11-14T05:06:24.074Z,95974.88
2023-11-14T05:08:52.024Z,95936.19
2023-11-14T05:11:19.277Z,95966.69
2023-11-14T05:13:46.190Z,95963.06
2023-11-14T05:16:21.983Z,95953.34
2023-11-14T05:18:51.382Z,95972.84
2023-11-14T05:21:18.440Z,95936.81
2023-11-14T05:23:45.401Z,95933.84
2023-11-14T05:26:12.510Z,95914.25
2023-11-14T05:28:39.710Z,95925.22
2023-11-14T05:31:07.042Z,95981.41
2023-11-14T05:33:34.116Z,95993.34
2023-11-14T05:36:01.007Z,95956.63
2023-11-14T05:38:28.616Z,95991.44
2023-11-14T05:40:57.736Z,95948.72
2023-11-14T05:43:29.440Z,95937.38
2023-11-14T05:45:56.745Z,95972.09
2023-11-14T05:48:24.405Z,95950.69
2023-11-14T05:50:51.482Z,95946.75
2023-11-14T05:53:18.397Z,95952.97
2023-11-14T05:55:45.685Z,95951.41
2023-11-14T05:58:12.836Z,95963.44
2023-11-14T06:00:39.933Z,95970.50
2023-11-14T06:03:07.046Z,95968.13
2023-11-14T06:05:34.107Z,95988.75
2023-11-14T06:08:02.003Z,95988.06
2023-11-14T06:10:29.001Z,95987.75
2023-11-14T06:12:59.225Z,96001.84
2023-11-14T06:15:27.301Z,96019.72
2023-11-14T06:17:54.798Z,96008.72
2023-11-14T06:20:25.713Z,95999.78
2023-11-14T06:22:52.695Z,95999.03
2023-11-14T06:25:19.938Z,96005.19
2023-11-14T06:27:47.042Z,96006.94
2023-11-14T06:30:14.438Z,96017.22
2023-11-14T06:32:41.959Z,96025.41
2023-11-14T06:35:09.191Z,96047.50
2023-11-14T06:37:38.264Z,96040.34
2023-11-14T06:40:06.196Z,96038.50
2023-11-14T06:42:33.160Z,96041.75
2023-11-14T06:45:00.067Z,96038.16
2023-11-14T06:47:29.272Z,96058.91
2023-11-14T06:49:56.173Z,96063.59
2023-11-14T06:52:23.117Z,96059.75
2023-11-14T06:54:50.185Z,96060.72
2023-11-14T06:57:17.083Z,96070.63
2023-11-14T06:59:44.060Z,96083.91
2023-11-14T07:02:11.030Z,96072.06
2023-11-14T07:04:40.912Z,96071.03
2023-11-14T07:07:07.908Z,96062.56
2023-11-14T07:09:35.219Z,96075.72
2023-11-14T07:12:03.165Z,96072.81
2023-11-14T07:14:30.518Z,96090.09
2023-11-14T07:16:58.110Z,96083.31
2023-11-14T07:19:25.264Z,96079.75
2023-11-14T07:21:52.195Z,96084.88
2023-11-14T07:24:19.221Z,96082.16
2023-11-14T07:26:46.244Z,96088.81
2023-11-14T07:29:14.301Z,96094.94
2023-11-14T07:31:43.372Z,96100.91
2023-11-14T07:34:10.503Z,96095.38
2023-11-14T07:36:37.415Z,96105.81
2023-11-14T07:39:06.384Z,96114.34
2023-11-14T07:41:34.369Z,96109.72
2023-11-14T07:44:01.781Z,96114.00
2023-11-14T07:46:28.785Z,96126.94
2023-11-14T07:48:55.880Z,96137.38
2023-11-14T07:51:22.890Z,96131.41
2023-11-14T07:53:50.968Z,96135.75
2023-11-14T07:56:17.997Z,96147.34
2023-11-14T07:58:45.013Z,96155.44
2023-11-14T08:01:12.151Z,96162.13
2023-11-14T08:03:39.687Z,96164.78
2023-11-14T08:06:07.829Z,96166.28
2023-11-14T08:08:35.012Z,96168.78
2023-11-14T08:11:03.422Z,96159.22
2023-11-14T08:13:30.555Z,96169.78
2023-11-14T08:15:57.484Z,96177.66
2023-11-14T08:18:24.366Z,96157.34
2023-11-14T08:20:52.264Z,96177.13
2023-11-14T08:23:19.220Z,96172.09
2023-11-14T08:25:46.243Z,96169.47
2023-11-14T08:28:13.254Z,96153.81
2023-11-14T08:30:41.413Z,96128.88
2023-11-14T08:33:08.950Z,96121.81
2023-11-14T08:35:35.878Z,96141.72
2023-11-14T08:38:10.293Z,96125.50
2023-11-14T08:40:44.321Z,96130.25
2023-11-14T08:43:11.281Z,96145.09
2023-11-14T08:45:38.701Z,96149.66
2023-11-14T08:48:06.133Z,96175.19
2023-11-14T08:50:36.570Z,96181.63
2023-11-14T08:53:04.438Z,96197.00
2023-11-14T08:55:32.022Z,96191.94
2023-11-14T08:58:00.932Z,96188.13
2023-11-14T09:00:28.605Z,96176.00
2023-11-14T09:02:55.590Z,96161.44
2023-11-14T09:05:22.568Z,96160.56
2023-11-14T09:07:49.518Z,96149.97
2023-11-14T09:10:16.461Z,96149.06
2023-11-14T09:12:43.547Z,96158.22
2023-11-14T09:15:12.551Z,96172.56
2023-11-14T09:17:44.739Z,96176.47
2023-11-14T09:20:14.491Z,96157.38
2023-11-14T09:22:41.544Z,96162.31
2023-11-14T09:25:09.391Z,96156.72
2023-11-14T09:27:36.328Z,96164.47
2023-11-14T09:30:04.031Z,96163.63
2023-11-14T09:32:31.164Z,96179.75
2023-11-14T09:34:58.355Z,96184.50
2023-11-14T09:37:25.553Z,96168.44
2023-11-14T09:39:52.760Z,96145.19
2023-11-14T09:42:20.140Z,96175.28
2023-11-14T09:44:47.492Z,96170.84
2023-11-14T09:47:14.921Z,96168.53
2023-11-14T09:49:43.823Z,96175.53
2023-11-14T09:52:14.327Z,96148.63
2023-11-14T09:54:43.467Z,96151.28
2023-11-14T09:57:12.846Z,96137.00
2023-11-14T09:59:43.377Z,96141.75
2023-11-14T10:02:11.315Z,96146.84
2023-11-14T10:04:43.285Z,96166.88
2023-11-14T10:07:10.775Z,96153.44
2023-11-14T10:09:43.791Z,96153.94
2023-11-14T10:12:20.674Z,96159.69
2023-11-14T10:14:52.306Z,96153.13
2023-11-14T10:17:20.731Z,96171.47
2023-11-14T10:20:10.416Z,96172.19
2023-11-14T10:22:50.893Z,96164.97
2023-11-14T10:25:30.971Z,96146.63
2023-11-14T10:28:05.939Z,96132.53
2023-11-14T10:30:50.381Z,96121.28
2023-11-14T10:33:18.220Z,96109.63
2023-11-14T10:35:46.667Z,96106.34
2023-11-14T10:42:11.556Z,96120.13
2023-11-14T10:44:40.005Z,96129.81
2023-11-14T10:47:08.343Z,96122.13
2023-11-14T10:49:48.429Z,96123.06
2023-11-14T10:52:16.954Z,96106.66
2023-11-14T10:54:46.645Z,96091.41
2023-11-14T10:57:24.020Z,96093.75
2023-11-14T10:59:54.382Z,96082.91
2023-11-14T11:02:23.326Z,96083.28
2023-11-14T11:04:51.532Z,96083.59
2023-11-14T11:07:19.708Z,96099.28
2023-11-14T11:09:47.104Z,96096.94
2023-11-14T11:12:16.248Z,96077.78
2023-11-14T11:14:43.838Z,96084.22
2023-11-14T11:17:11.028Z,96089.88
2023-11-14T11:19:38.854Z,96089.13
2023-11-14T11:22:08.026Z,96068.66
2023-11-14T11:24:41.449Z,96048.19
2023-11-14T11:27:22.567Z,96066.47
2023-11-14T11:30:01.651Z,96068.06
2023-11-14T11:32:35.833Z,96077.50
2023-11-14T11:35:21.562Z,96084.78
2023-11-14T11:38:12.636Z,96067.00
2023-11-14T11:41:13.904Z,96073.47
2023-11-14T11:43:46.142Z,96080.81
2023-11-14T11:46:35.526Z,96074.34
2023-11-14T11:49:11.850Z,96057.84
2023-11-14T11:51:50.061Z,96047.34
2023-11-14T11:54:29.379Z,96051.06
2023-11-14T11:57:06.177Z,96040.50
2023-11-14T11:59:53.500Z,96016.34
2023-11-14T12:02:25.270Z,96014.81
2023-11-14T12:04:59.473Z,96027.31
2023-11-14T12:07:26.664Z,96022.22
2023-11-14T12:09:54.572Z,96004.59
2023-11-14T12:12:21.627Z,96013.28
2023-11-14T12:14:48.646Z,96023.84
2023-11-14T12:17:15.809Z,96004.81
2023-11-14T12:19:44.782Z,96023.13
2023-11-14T12:22:13.248Z,96029.91
2023-11-14T12:24:41.269Z,96015.88
2023-11-14T12:27:08.166Z,96026.13
2023-11-14T12:29:35.064Z,96010.88
2023-11-14T12:33:08.522Z,96003.50
2023-11-14T12:36:08.887Z,95975.41
2023-11-14T12:38:39.229Z,95977.34
2023-11-14T12:41:23.062Z,95965.69
2023-11-14T12:44:07.715Z,95973.25
2023-11-14T12:46:37.901Z,95943.47
2023-11-14T12:49:13.904Z,95956.31
2023-11-14T12:51:44.864Z,95961.56
2023-11-14T12:54:21.546Z,95964.31
2023-11-14T12:56:49.916Z,95964.66
2023-11-14T12:59:18.182Z,95959.50
2023-11-14T13:01:47.002Z,95965.63
2023-11-14T13:04:16.674Z,95960.03
2023-11-14T13:06:47.402Z,95961.13
2023-11-14T13:09:20.994Z,95942.47
2023-11-14T13:11:48.409Z,95947.53
2023-11-14T13:14:16.025Z,95934.00
2023-11-14T13:16:44.817Z,95928.59
2023-11-14T13:19:12.909Z,95912.09
2023-11-14T13:21:39.905Z,95903.41
2023-11-14T13:24:08.610Z,95898.34
2023-11-14T13:26:39.515Z,95905.72
2023-11-14T13:29:07.592Z,95911.88
2023-11-14T13:31:35.260Z,95908.72
2023-11-14T13:34:02.210Z,95906.22
2023-11-14T13:36:30.388Z,95899.31
2023-11-14T13:38:57.481Z,95898.38
2023-11-14T13:41:25.113Z,95894.47
2023-11-14T13:43:52.278Z,95892.63
2023-11-14T13:46:26.576Z,95887.09
2023-11-14T13:48:58.252Z,95884.47
2023-11-14T13:51:26.251Z,95897.69
2023-11-14T13:53:53.405Z,95896.31
2023-11-14T13:56:21.062Z,95896.19
2023-11-14T13:58:48.278Z,95908.47
2023-11-14T14:01:17.905Z,95905.97
2023-11-14T14:03:45.730Z,95913.91
2023-11-14T14:06:14.129Z,95904.25
2023-11-14T14:08:41.240Z,95893.53
2023-11-14T14:11:09.751Z,95881.84
2023-11-14T14:13:36.917Z,95889.16
2023-11-14T14:16:04.958Z,95886.88
2023-11-14T14:18:35.214Z,95893.31
2023-11-14T14:21:05.273Z,95902.94
2023-11-14T14:23:33.467Z,95928.63
2023-11-14T14:26:03.503Z,95898.09
2023-11-14T14:28:31.575Z,95901.75
2023-11-14T14:31:00.839Z,95911.13
2023-11-14T14:33:28.018Z,95911.53
2023-11-14T14:35:55.175Z,95922.66
2023-11-14T14:38:23.506Z,95936.00
2023-11-14T14:40:50.888Z,95937.19
2023-11-14T14:43:17.912Z,95936.50
2023-11-14T14:45:47.326Z,95934.88
2023-11-14T14:48:14.711Z,95930.78
2023-11-14T14:50:41.771Z,95932.41
2023-11-14T14:53:11.134Z,95936.91
2023-11-14T14:55:38.501Z,95947.91
2023-11-14T14:58:08.153Z,95960.81
2023-11-14T15:00:35.232Z,95951.44
2023-11-14T15:03:03.031Z,95966.38
2023-11-14T15:05:36.633Z,95967.66
2023-11-14T15:08:06.868Z,95965.41
2023-11-14T15:10:34.787Z,95974.19
2023-11-14T15:13:02.644Z,95961.16
2023-11-14T15:15:30.905Z,95967.00
2023-11-14T15:17:58.972Z,95966.13
2023-11-14T15:20:26.855Z,95982.16
2023-11-14T15:22:54.419Z,95954.53
2023-11-14T15:25:21.670Z,95952.84
2023-11-14T15:27:48.961Z,95950.63
2023-11-14T15:30:16.367Z,95941.47
2023-11-14T15:32:44.087Z,95934.94
2023-11-14T15:35:11.384Z,95941.69
2023-11-14T15:37:38.393Z,95943.06
2023-11-14T15:40:09.516Z,95935.34
2023-11-14T15:42:42.753Z,95938.06
2023-11-14T15:45:10.750Z,95951.16
2023-11-14T15:47:37.727Z,95949.94
2023-11-14T15:50:07.245Z,95956.47
2023-11-14T15:52:34.357Z,95952.75
2023-11-14T15:55:04.283Z,95953.81
2023-11-14T15:57:31.308Z,95947.81
2023-11-14T15:59:58.194Z,95935.94
2023-11-14T16:02:25.295Z,95926.94
2023-11-14T16:04:52.243Z,95929.59
2023-11-14T16:07:19.104Z,95937.97
2023-11-14T16:09:46.023Z,95951.09
2023-11-14T16:12:13.793Z,95948.59
2023-11-14T16:14:40.684Z,95953.59
2023-11-14T16:17:07.700Z,95941.03
2023-11-14T16:19:37.742Z,95942.63
2023-11-14T16:22:06.287Z,95916.75
2023-11-14T16:24:33.501Z,95907.56
2023-11-14T16:27:01.772Z,95903.69
2023-11-14T16:29:29.137Z,95901.31
2023-11-14T16:31:56.648Z,95898.06
2023-11-14T16:34:24.035Z,95892.50
2023-11-14T16:36:50.980Z,95882.69
2023-11-14T16:39:18.364Z,95879.94
2023-11-14T16:41:45.452Z,95886.53
2023-11-14T16:44:12.784Z,95903.72
2023-11-14T16:46:40.370Z,95885.00
2023-11-14T16:49:07.775Z,95875.06
2023-11-14T16:51:35.140Z,95887.38
2023-11-14T16:54:02.946Z,95896.34
2023-11-14T16:56:30.160Z,95884.75
2023-11-14T16:58:59.291Z,95879.47
2023-11-14T17:01:28.665Z,95844.13
2023-11-14T17:04:02.522Z,95836.56
2023-11-14T17:06:29.980Z,95841.59
2023-11-14T17:08:56.826Z,95837.25
2023-11-14T17:11:23.777Z,95825.00
2023-11-14T17:13:51.402Z,95811.63
2023-11-14T17:16:18.360Z,95806.75
2023-11-14T17:18:45.299Z,95821.28
2023-11-14T17:21:12.593Z,95843.69
2023-11-14T17:23:42.490Z,95831.19
2023-11-14T17:26:11.285Z,95801.97
2023-11-14T17:28:40.895Z,95795.47
2023-11-14T17:31:07.793Z,95784.09
2023-11-14T17:33:34.700Z,95767.72
2023-11-14T17:36:01.709Z,95755.47
2023-11-14T17:38:28.850Z,95780.91
2023-11-14T17:40:55.891Z,95788.53
2023-11-14T17:43:22.800Z,95797.03
2023-11-14T17:45:50.358Z,95780.97
2023-11-14T17:48:17.346Z,95784.56
2023-11-14T17:50:47.268Z,95769.78
2023-11-14T17:53:15.187Z,95765.50
2023-11-14T17:55:42.254Z,95766.31
2023-11-14T17:58:09.143Z,95769.16
2023-11-14T18:00:36.571Z,95770.78
2023-11-14T18:03:03.823Z,95784.63
2023-11-14T18:05:31.920Z,95772.41
2023-11-14T18:08:05.609Z,95775.66
2023-11-14T18:10:35.229Z,95782.69
2023-11-14T18:13:03.213Z,95766.69
2023-11-14T18:15:31.267Z,95768.78
2023-11-14T18:17:59.569Z,95766.50
2023-11-14T18:20:30.558Z,95742.44
2023-11-14T18:22:57.678Z,95730.16
2023-11-14T18:25:24.926Z,95716.59
2023-11-14T18:27:52.016Z,95705.00
2023-11-14T18:30:19.381Z,95695.53
2023-11-14T18:32:47.993Z,95708.09
2023-11-14T18:35:15.447Z,95725.06
2023-11-14T18:37:43.595Z,95723.13
2023-11-14T18:40:11.165Z,95717.06
2023-11-14T18:42:38.395Z,95716.59
2023-11-14T18:45:08.261Z,95720.97
2023-11-14T18:47:39.775Z,95715.56
2023-11-14T18:50:11.000Z,95715.56
2023-11-14T18:52:41.620Z,95711.63
2023-11-14T18:55:09.525Z,95713.69
2023-11-14T18:57:37.104Z,95716.13
2023-11-14T19:00:06.099Z,95709.56
2023-11-14T19:02:34.095Z,95697.72
2023-11-14T19:05:01.266Z,95694.22
2023-11-14T19:07:28.502Z,95671.72
2023-11-14T19:09:55.688Z,95659.84
2023-11-14T19:12:24.397Z,95659.13
2023-11-14T19:14:53.181Z,95655.91
2023-11-14T19:17:21.446Z,95661.75
2023-11-14T19:19:48.777Z,95665.41
2023-11-14T19:22:42.611Z,95663.94
2023-11-14T19:27:32.186Z,95640.47
2023-11-14T19:29:59.502Z,95653.22
2023-11-14T19:32:26.866Z,95640.84
2023-11-14T19:34:55.442Z,95644.53
2023-11-14T19:37:22.665Z,95647.72
2023-11-14T19:39:49.684Z,95650.66
2023-11-14T19:42:19.434Z,95664.25
2023-11-14T19:44:46.643Z,95659.31
2023-11-14T19:47:13.902Z,95649.19
2023-11-14T19:49:45.347Z,95651.59
2023-11-14T19:52:16.490Z,95656.47
2023-11-14T19:54:45.511Z,95653.44
2023-11-14T19:57:12.479Z,95661.31
2023-11-14T19:59:39.850Z,95661.31
2023-11-14T20:02:07.291Z,95669.03
2023-11-14T20:04:34.225Z,95662.06
2023-11-14T20:07:01.697Z,95654.56
2023-11-14T20:09:30.105Z,95656.53
2023-11-14T20:11:57.890Z,95652.22
2023-11-14T20:14:24.957Z,95650.78
2023-11-14T20:16:51.982Z,95654.00
2023-11-14T20:19:19.493Z,95647.50
2023-11-14T20:21:46.744Z,95643.03
2023-11-14T20:24:13.787Z,95641.78
2023-11-14T20:26:41.814Z,95642.31
2023-11-14T20:29:09.364Z,95633.41
2023-11-14T20:31:36.445Z,95641.41
2023-11-14T20:34:03.377Z,95634.84
2023-11-14T20:36:31.853Z,95625.06
2023-11-14T20:38:59.450Z,95620.97
2023-11-14T20:41:26.813Z,95626.06
2023-11-14T20:43:53.832Z,95620.81
2023-11-14T20:46:21.042Z,95629.34
2023-11-14T20:48:47.954Z,95630.75
2023-11-14T20:51:22.402Z,95635.25
2023-11-14T20:53:56.910Z,95632.97
2023-11-14T20:56:26.577Z,95647.28
2023-11-14T20:58:54.555Z,95639.06
2023-11-14T21:01:23.050Z,95654.97
2023-11-14T21:03:50.672Z,95646.22
2023-11-14T21:06:17.684Z,95652.28
2023-11-14T21:08:44.875Z,95663.31
2023-11-14T21:11:12.126Z,95641.00
2023-11-14T21:13:40.148Z,95639.72
2023-11-14T21:16:10.830Z,95632.59
2023-11-14T21:18:38.697Z,95625.50
2023-11-14T21:21:08.362Z,95607.63
2023-11-14T21:23:40.036Z,95576.78
2023-11-14T21:26:09.677Z,95590.00
2023-11-14T21:28:37.854Z,95594.13
2023-11-14T21:31:08.576Z,95588.50
2023-11-14T21:33:37.086Z,95568.44
2023-11-14T21:36:05.803Z,95576.34
2023-11-14T21:38:33.447Z,95599.41
2023-11-14T21:41:00.999Z,95613.06
2023-11-14T21:43:28.456Z,95598.69
2023-11-14T21:45:56.601Z,95607.75
2023-11-14T21:48:24.075Z,95641.78
2023-11-14T21:50:51.199Z,95661.72
2023-11-14T21:53:19.270Z,95667.78
2023-11-14T21:55:46.349Z,95674.59
2023-11-14T21:58:14.081Z,95676.13
2023-11-14T22:00:40.989Z,95671.13
2023-11-14T22:03:08.029Z,95689.44
2023-11-14T22:05:35.055Z,95687.66
2023-11-14T22:08:02.053Z,95682.41
2023-11-14T22:10:28.964Z,95677.25
2023-11-14T22:12:55.899Z,95687.72
2023-11-14T22:15:22.854Z,95690.97
2023-11-14T22:17:49.851Z,95685.97
2023-11-14T22:20:17.193Z,95702.66
2023-11-14T22:22:44.133Z,95696.22
2023-11-14T22:25:11.133Z,95687.75
2023-11-14T22:27:38.117Z,95693.94
2023-11-14T22:30:06.394Z,95698.63
2023-11-14T22:32:33.474Z,95697.91
2023-11-14T22:35:03.343Z,95707.09
2023-11-14T22:37:30.264Z,95719.81
2023-11-14T22:39:57.240Z,95719.53
2023-11-14T22:42:24.133Z,95724.09
2023-11-14T22:44:51.261Z,95725.69
2023-11-14T22:47:18.344Z,95730.25
2023-11-14T22:49:45.355Z,95748.16
2023-11-14T22:52:12.921Z,95749.06
2023-11-14T22:54:40.094Z,95756.81
2023-11-14T22:57:07.024Z,95755.63
2023-11-14T22:59:34.012Z,95762.66
2023-11-14T23:02:01.123Z,95766.09
2023-11-14T23:04:28.232Z,95774.78
2023-11-14T23:06:55.817Z,95781.19
2023-11-14T23:09:24.389Z,95781.84
2023-11-14T23:11:52.098Z,95790.66
2023-11-14T23:14:21.738Z,95785.47
2023-11-14T23:16:50.033Z,95783.41
2023-11-14T23:19:17.792Z,95791.00
2023-11-14T23:21:52.216Z,95789.16
2023-11-14T23:24:22.424Z,95781.25
2023-11-14T23:26:49.940Z,95786.34
2023-11-14T23:29:17.086Z,95794.44
2023-11-14T23:31:44.451Z,95804.19
2023-11-14T23:34:11.436Z,95800.91
2023-11-14T23:36:38.442Z,95806.22
2023-11-14T23:39:05.760Z,95793.69
2023-11-14T23:41:34.898Z,95806.03
2023-11-14T23:44:02.799Z,95810.00
2023-11-14T23:46:30.610Z,95799.94
2023-11-14T23:48:57.562Z,95803.97
2023-11-14T23:51:25.066Z,95811.78
2023-11-14T23:53:53.532Z,95806.69
2023-11-14T23:56:20.700Z,95807.50
2023-11-14T23:58:47.587Z,95811.16
